Zim Rio Grande — 9HNV9 — position and weather

sailwx.info

Track history (hours):
 
Tides and Currents Weather Stations Pressure Air Temp Water Temp Dewpoint Dewpoint Depression Visibility Wind Speed Wind Dir Waves Ship Positions

Zim Rio Grande

Last reported at 2015-Mar-14 15:12 UTC. Time now 2015-Mar-31 05:27 UTC.
Position N 01°52' E 102°27'.
Warning: this ship's position is 16 days out of date.

Length 260 m; draft 9.3 m.

Type: Ship (hazmat cat A). MMSI: 249253000.

Date/timePositionNaut miles runAvg speedWind from/ knotsBaromVisibWave heightAir tempDewpointWater temp
2015-Mar-14 15:12N 01°52' E 102°27'914.3
2015-Mar-14 14:32N 01°48' E 102°36'1514.2
2015-Mar-14 13:31N 01°42' E 102°49'6813.7
2015-Mar-14 08:33N 01°11' E 103°49'1515.3
2015-Mar-14 07:33N 01°16' E 104°04'  
2015-Mar-10 07:33N 22°07' E 114°19'1511.9
2015-Mar-10 06:18N 22°16' E 114°06'1212.7
2015-Mar-10 05:21N 22°22' E 113°55'6 0.4
2015-Mar-09 16:12N 22°27' E 113°52'5 8.2
2015-Mar-09 15:33N 22°22' E 113°54'1110.7
2015-Mar-09 14:33N 22°19' E 114°05'1110.3
2015-Mar-09 13:27N 22°10' E 114°13'910.0
2015-Mar-09 12:32N 22°10' E 114°23'8 8.4
2015-Mar-09 11:33N 22°12' E 114°31'1 0.7
2015-Mar-09 10:30N 22°12' E 114°31'1 0.8
2015-Mar-09 09:30N 22°13' E 114°31'12911.8
2015-Mar-08 22:30N 22°44' E 116°47'2812.3
2015-Mar-08 20:11N 22°57' E 117°14'7411.2
2015-Mar-08 13:33N 23°40' E 118°21'2311.6
2015-Mar-08 11:32N 23°55' E 118°40'38511.7
2015-Mar-07 02:32N 29°20' E 122°31'1711.8
2015-Mar-07 01:08N 29°37' E 122°30'611.1
2015-Mar-07 00:33N 29°42' E 122°25'1110.7
2015-Mar-06 23:33N 29°48' E 122°15'1211.9
2015-Mar-06 22:33N 29°55' E 122°04'1212.1
2015-Mar-06 21:33N 29°57' E 121°50'0 0.1
2015-Mar-06 20:16N 29°57' E 121°50'0 0.0
2015-Mar-06 19:22N 29°57' E 121°50'0 0.0
2015-Mar-06 18:16N 29°57' E 121°50'0 0.0
2015-Mar-06 17:28N 29°57' E 121°50'0 0.0
2015-Mar-06 16:10N 29°57' E 121°50'0 0.0
2015-Mar-06 15:28N 29°57' E 121°50'0 0.0
2015-Mar-06 14:22N 29°57' E 121°50'0 0.0
2015-Mar-06 13:22N 29°57' E 121°50'0 0.0
2015-Mar-06 12:29N 29°57' E 121°50'5 5.8
2015-Mar-06 11:33N 29°59' E 121°56'1211.9
2015-Mar-06 10:33N 29°55' E 122°09'1212.3
2015-Mar-06 09:33N 29°46' E 122°18'1313.2
2015-Mar-06 08:33N 29°42' E 122°32'2017.0
2015-Mar-06 07:22N 29°52' E 122°52'7612.4
2015-Mar-06 01:14N 31°05' E 122°31'710.7
2015-Mar-06 00:33N 31°06' E 122°23'1110.6
2015-Mar-05 23:33N 31°10' E 122°11'1414.0
2015-Mar-05 22:34N 31°15' E 121°56'1413.6
2015-Mar-05 21:33N 31°20' E 121°41'5 5.2
2015-Mar-05 20:33N 31°22' E 121°35'0 0.0
2015-Mar-05 19:33N 31°22' E 121°35'0 0.0
2015-Mar-05 18:33N 31°22' E 121°35'0 0.0
2015-Mar-05 17:33N 31°22' E 121°35'0 0.0
2015-Mar-05 16:33N 31°22' E 121°35'0 0.0
2015-Mar-05 15:33N 31°22' E 121°35'0 0.0
2015-Mar-05 14:33N 31°22' E 121°35'0 0.0
2015-Mar-05 13:33N 31°22' E 121°35'0 0.1
2015-Mar-05 12:33N 31°22' E 121°36'0 0.1
2015-Mar-05 11:33N 31°22' E 121°35'0 0.1
2015-Mar-05 10:33N 31°22' E 121°36'0 0.1
2015-Mar-05 09:33N 31°22' E 121°35'0 0.0
2015-Mar-05 08:33N 31°22' E 121°35'0 0.0
2015-Mar-05 07:33N 31°22' E 121°35'0 0.1
2015-Mar-05 06:33N 31°22' E 121°36'0 0.0
2015-Mar-05 05:30N 31°22' E 121°36'0 0.1
2015-Mar-05 04:33N 31°22' E 121°35'2 1.9
2015-Mar-05 03:33N 31°22' E 121°38'1111.1
2015-Mar-05 02:33N 31°17' E 121°49'1111.1
2015-Mar-05 01:33N 31°14' E 122°02'10 9.9
2015-Mar-05 00:33N 31°10' E 122°12'9 9.1
2015-Mar-04 23:33N 31°06' E 122°22'1110.8
2015-Mar-04 22:33N 31°06' E 122°35'  
Track history (hours):
 
Tides and Currents Weather Stations Pressure Air Temp Water Temp Dewpoint Dewpoint Depression Visibility Wind Speed Wind Dir Waves Ship Positions

Zim Rio Grande

Last reported at 2015-Mar-14 15:12 UTC. Time now 2015-Mar-31 05:27 UTC.
Position N 01°52' E 102°27'.
Warning: this ship's position is 16 days out of date.

Length 260 m; draft 9.3 m.

Type: Ship (hazmat cat A). MMSI: 249253000.

Date/timePositionNaut miles runAvg speedWind from/ knotsBaromVisibWave heightAir tempDewpointWater temp
2015-Mar-14 15:12N 01°52' E 102°27'914.3
2015-Mar-14 14:32N 01°48' E 102°36'1514.2
2015-Mar-14 13:31N 01°42' E 102°49'6813.7
2015-Mar-14 08:33N 01°11' E 103°49'1515.3
2015-Mar-14 07:33N 01°16' E 104°04'  
2015-Mar-10 07:33N 22°07' E 114°19'1511.9
2015-Mar-10 06:18N 22°16' E 114°06'1212.7
2015-Mar-10 05:21N 22°22' E 113°55'6 0.4
2015-Mar-09 16:12N 22°27' E 113°52'5 8.2
2015-Mar-09 15:33N 22°22' E 113°54'1110.7
2015-Mar-09 14:33N 22°19' E 114°05'1110.3
2015-Mar-09 13:27N 22°10' E 114°13'910.0
2015-Mar-09 12:32N 22°10' E 114°23'8 8.4
2015-Mar-09 11:33N 22°12' E 114°31'1 0.7
2015-Mar-09 10:30N 22°12' E 114°31'1 0.8
2015-Mar-09 09:30N 22°13' E 114°31'12911.8
2015-Mar-08 22:30N 22°44' E 116°47'2812.3
2015-Mar-08 20:11N 22°57' E 117°14'7411.2
2015-Mar-08 13:33N 23°40' E 118°21'2311.6
2015-Mar-08 11:32N 23°55' E 118°40'38511.7
2015-Mar-07 02:32N 29°20' E 122°31'1711.8
2015-Mar-07 01:08N 29°37' E 122°30'611.1
2015-Mar-07 00:33N 29°42' E 122°25'1110.7
2015-Mar-06 23:33N 29°48' E 122°15'1211.9
2015-Mar-06 22:33N 29°55' E 122°04'1212.1
2015-Mar-06 21:33N 29°57' E 121°50'0 0.1
2015-Mar-06 20:16N 29°57' E 121°50'0 0.0
2015-Mar-06 19:22N 29°57' E 121°50'0 0.0
2015-Mar-06 18:16N 29°57' E 121°50'0 0.0
2015-Mar-06 17:28N 29°57' E 121°50'0 0.0
2015-Mar-06 16:10N 29°57' E 121°50'0 0.0
2015-Mar-06 15:28N 29°57' E 121°50'0 0.0
2015-Mar-06 14:22N 29°57' E 121°50'0 0.0
2015-Mar-06 13:22N 29°57' E 121°50'0 0.0
2015-Mar-06 12:29N 29°57' E 121°50'5 5.8
2015-Mar-06 11:33N 29°59' E 121°56'1211.9
2015-Mar-06 10:33N 29°55' E 122°09'1212.3
2015-Mar-06 09:33N 29°46' E 122°18'1313.2
2015-Mar-06 08:33N 29°42' E 122°32'2017.0
2015-Mar-06 07:22N 29°52' E 122°52'7612.4
2015-Mar-06 01:14N 31°05' E 122°31'710.7
2015-Mar-06 00:33N 31°06' E 122°23'1110.6
2015-Mar-05 23:33N 31°10' E 122°11'1414.0
2015-Mar-05 22:34N 31°15' E 121°56'1413.6
2015-Mar-05 21:33N 31°20' E 121°41'5 5.2
2015-Mar-05 20:33N 31°22' E 121°35'0 0.0
2015-Mar-05 19:33N 31°22' E 121°35'0 0.0
2015-Mar-05 18:33N 31°22' E 121°35'0 0.0
2015-Mar-05 17:33N 31°22' E 121°35'0 0.0
2015-Mar-05 16:33N 31°22' E 121°35'0 0.0
2015-Mar-05 15:33N 31°22' E 121°35'0 0.0
2015-Mar-05 14:33N 31°22' E 121°35'0 0.0
2015-Mar-05 13:33N 31°22' E 121°35'0 0.1
2015-Mar-05 12:33N 31°22' E 121°36'0 0.1
2015-Mar-05 11:33N 31°22' E 121°35'0 0.1
2015-Mar-05 10:33N 31°22' E 121°36'0 0.1
2015-Mar-05 09:33N 31°22' E 121°35'0 0.0
2015-Mar-05 08:33N 31°22' E 121°35'0 0.0
2015-Mar-05 07:33N 31°22' E 121°35'0 0.1
2015-Mar-05 06:33N 31°22' E 121°36'0 0.0
2015-Mar-05 05:30N 31°22' E 121°36'0 0.1
2015-Mar-05 04:33N 31°22' E 121°35'2 1.9
2015-Mar-05 03:33N 31°22' E 121°38'1111.1
2015-Mar-05 02:33N 31°17' E 121°49'1111.1
2015-Mar-05 01:33N 31°14' E 122°02'10 9.9
2015-Mar-05 00:33N 31°10' E 122°12'9 9.1
2015-Mar-04 23:33N 31°06' E 122°22'1110.8
2015-Mar-04 22:33N 31°06' E 122°35'  

Dump ship's entire track history